Aérodrome :
LOGIN :

S'inscrire | Disclaimer

   EN    FR    IT 

 










Légende :    VFR   VFR Marginal   IFR   IFR Intensif   IFR Très Intensif
Visi : 
Plafond : 
>= 8 km
>= 3000ft
5 à 8 km
1000 à 3000 ft
1500m à 5 km
500 à 1000 ft
800 à 1500m
200 à 500 ft
< 800m
< 200 ft
Symboles :   Orages  Brouillard  Fortes neiges  Fortes précipitations  Vent > 20 kt
SIGMETs :   Divers  Orages  Givrage  Turbulence  Onde Orograph.  Cendres Volcan.






- Altitude de l'aérodrome : 21 ft
- Code IATA : VST


ESOW - Stockholm Västerås

DERNIER METAR :
  • 211350Z 08007KT 050V110 9999 BKN007 07/05 Q1024 R19/290195

METARs EXPIRÉS :
  • 211320Z 08007KT 050V130 7000 BR SCT007 BKN009 07/05 Q1024 R19/290195
  • 211250Z 08005KT 050V120 4200 BR SCT006 BKN010 07/06 Q1024 R19/290195
  • 211220Z 11007KT 6000 -DZ BKN006 07/06 Q1025 R19/290195
  • 211150Z 10007KT 4300 -DZ OVC006 07/06 Q1025 R19/290195
  • 211120Z 12008KT 4000 BR BKN006 07/06 Q1025 R19/290195

TAF TAF ESOW
Valide du 21 à 12h jusqu'au 21 à 16h UTC


211130Z 2112/2116 12010KT 5000 BKN007
TEMPO 2112/2116 2500 BR BKN004



MET'MAP, la Météo Aéronautique d'un coup d'oeil ! - Copyright ORBIFLY Décembre 2007 - Disclaimer

ORBIFLY MET'MAP TEAM :

Programmation & Développement : Alexandra Zaïnal
Conception & Développement : Baudouin d'Aumeries
Co-Programmation & Développement : Marc-Olivier Méhu
Soutien technique & logistique : Manuel Goepfert

Contact : metmap@orbifly.com




SOURCES & CREDITS :

   NOAA